sensor_id;sensor_type;location;lat;lon;timestamp;P1;durP1;ratioP1;P2;durP2;ratioP2
84431;SDS011;74658;51.736;7.038;2024-01-30T00:00:29;35.20;;;17.60;;
84431;SDS011;74658;51.736;7.038;2024-01-30T00:05:30;36.10;;;18.10;;
84431;SDS011;74658;51.736;7.038;2024-01-30T00:10:31;35.50;;;17.30;;
84431;SDS011;74658;51.736;7.038;2024-01-30T00:15:31;31.70;;;15.90;;
84431;SDS011;74658;51.736;7.038;2024-01-30T00:20:32;31.50;;;16.90;;
84431;SDS011;74658;51.736;7.038;2024-01-30T00:25:32;35.50;;;17.10;;
84431;SDS011;74658;51.736;7.038;2024-01-30T00:30:33;35.40;;;16.90;;
84431;SDS011;74658;51.736;7.038;2024-01-30T00:35:33;34.20;;;16.60;;
84431;SDS011;74658;51.736;7.038;2024-01-30T00:40:34;33.80;;;16.90;;
84431;SDS011;74658;51.736;7.038;2024-01-30T00:45:35;32.10;;;15.90;;
84431;SDS011;74658;51.736;7.038;2024-01-30T00:50:35;33.90;;;16.00;;
84431;SDS011;74658;51.736;7.038;2024-01-30T00:55:36;32.30;;;16.30;;
84431;SDS011;74658;51.736;7.038;2024-01-30T01:00:37;31.40;;;15.90;;
84431;SDS011;74658;51.736;7.038;2024-01-30T01:05:37;34.40;;;16.30;;
84431;SDS011;74658;51.736;7.038;2024-01-30T01:10:41;35.10;;;16.00;;
84431;SDS011;74658;51.736;7.038;2024-01-30T01:15:39;35.50;;;16.20;;
84431;SDS011;74658;51.736;7.038;2024-01-30T01:20:40;35.80;;;16.30;;
84431;SDS011;74658;51.736;7.038;2024-01-30T01:25:40;30.30;;;15.90;;
84431;SDS011;74658;51.736;7.038;2024-01-30T01:30:41;33.70;;;16.30;;
84431;SDS011;74658;51.736;7.038;2024-01-30T01:35:42;31.30;;;15.40;;
84431;SDS011;74658;51.736;7.038;2024-01-30T01:40:42;31.70;;;16.60;;
84431;SDS011;74658;51.736;7.038;2024-01-30T01:45:43;36.00;;;17.40;;
84431;SDS011;74658;51.736;7.038;2024-01-30T01:50:43;35.90;;;17.60;;
84431;SDS011;74658;51.736;7.038;2024-01-30T01:55:45;38.10;;;17.70;;
84431;SDS011;74658;51.736;7.038;2024-01-30T02:00:45;38.80;;;17.70;;
84431;SDS011;74658;51.736;7.038;2024-01-30T02:05:45;34.60;;;16.90;;
84431;SDS011;74658;51.736;7.038;2024-01-30T02:10:46;34.00;;;16.60;;
84431;SDS011;74658;51.736;7.038;2024-01-30T02:15:48;32.70;;;17.00;;
84431;SDS011;74658;51.736;7.038;2024-01-30T02:20:47;40.30;;;17.50;;
84431;SDS011;74658;51.736;7.038;2024-01-30T02:25:48;36.50;;;17.50;;
84431;SDS011;74658;51.736;7.038;2024-01-30T02:30:48;34.50;;;16.10;;
84431;SDS011;74658;51.736;7.038;2024-01-30T02:35:49;34.80;;;16.20;;
84431;SDS011;74658;51.736;7.038;2024-01-30T02:40:50;34.70;;;16.10;;
84431;SDS011;74658;51.736;7.038;2024-01-30T02:45:50;35.20;;;16.00;;
84431;SDS011;74658;51.736;7.038;2024-01-30T02:50:51;35.30;;;16.20;;
84431;SDS011;74658;51.736;7.038;2024-01-30T02:55:51;34.60;;;16.20;;
84431;SDS011;74658;51.736;7.038;2024-01-30T03:00:52;35.50;;;15.80;;
84431;SDS011;74658;51.736;7.038;2024-01-30T03:05:53;33.40;;;15.70;;
84431;SDS011;74658;51.736;7.038;2024-01-30T03:10:53;33.40;;;16.00;;
84431;SDS011;74658;51.736;7.038;2024-01-30T03:15:54;34.60;;;16.00;;
84431;SDS011;74658;51.736;7.038;2024-01-30T03:20:54;34.50;;;16.40;;
84431;SDS011;74658;51.736;7.038;2024-01-30T03:25:55;35.00;;;15.50;;
84431;SDS011;74658;51.736;7.038;2024-01-30T03:30:56;34.70;;;15.70;;
84431;SDS011;74658;51.736;7.038;2024-01-30T03:35:56;32.40;;;15.40;;
84431;SDS011;74658;51.736;7.038;2024-01-30T03:40:57;35.10;;;16.00;;
84431;SDS011;74658;51.736;7.038;2024-01-30T03:45:57;34.20;;;15.90;;
84431;SDS011;74658;51.736;7.038;2024-01-30T03:50:58;34.50;;;14.70;;
84431;SDS011;74658;51.736;7.038;2024-01-30T03:55:59;32.00;;;15.30;;
84431;SDS011;74658;51.736;7.038;2024-01-30T04:00:59;34.70;;;15.40;;
84431;SDS011;74658;51.736;7.038;2024-01-30T04:06:00;33.50;;;15.50;;
84431;SDS011;74658;51.736;7.038;2024-01-30T04:11:03;36.10;;;15.70;;
84431;SDS011;74658;51.736;7.038;2024-01-30T04:16:01;36.10;;;16.30;;
84431;SDS011;74658;51.736;7.038;2024-01-30T04:21:02;35.40;;;15.70;;
84431;SDS011;74658;51.736;7.038;2024-01-30T04:26:02;32.40;;;15.30;;
84431;SDS011;74658;51.736;7.038;2024-01-30T04:31:03;35.70;;;16.50;;
84431;SDS011;74658;51.736;7.038;2024-01-30T04:36:04;39.80;;;18.10;;
84431;SDS011;74658;51.736;7.038;2024-01-30T04:41:05;37.00;;;16.60;;
84431;SDS011;74658;51.736;7.038;2024-01-30T04:46:05;35.30;;;15.90;;
84431;SDS011;74658;51.736;7.038;2024-01-30T04:51:05;40.80;;;19.60;;
84431;SDS011;74658;51.736;7.038;2024-01-30T04:56:06;44.20;;;21.20;;
84431;SDS011;74658;51.736;7.038;2024-01-30T05:01:07;46.20;;;19.90;;
84431;SDS011;74658;51.736;7.038;2024-01-30T05:06:07;45.70;;;22.40;;
84431;SDS011;74658;51.736;7.038;2024-01-30T05:11:08;46.00;;;22.60;;
84431;SDS011;74658;51.736;7.038;2024-01-30T05:16:08;42.60;;;20.90;;
84431;SDS011;74658;51.736;7.038;2024-01-30T05:21:10;45.10;;;20.70;;
84431;SDS011;74658;51.736;7.038;2024-01-30T05:26:10;37.60;;;18.80;;
84431;SDS011;74658;51.736;7.038;2024-01-30T05:31:10;41.00;;;18.80;;
84431;SDS011;74658;51.736;7.038;2024-01-30T05:36:11;39.50;;;17.50;;
84431;SDS011;74658;51.736;7.038;2024-01-30T05:41:11;42.10;;;18.90;;
84431;SDS011;74658;51.736;7.038;2024-01-30T05:46:12;37.80;;;17.30;;
84431;SDS011;74658;51.736;7.038;2024-01-30T05:51:13;43.40;;;17.70;;
84431;SDS011;74658;51.736;7.038;2024-01-30T05:56:13;44.20;;;18.60;;
84431;SDS011;74658;51.736;7.038;2024-01-30T06:01:14;42.90;;;19.60;;
84431;SDS011;74658;51.736;7.038;2024-01-30T06:06:14;75.70;;;26.40;;
84431;SDS011;74658;51.736;7.038;2024-01-30T06:11:15;66.40;;;26.30;;
84431;SDS011;74658;51.736;7.038;2024-01-30T06:16:16;63.70;;;25.50;;
84431;SDS011;74658;51.736;7.038;2024-01-30T06:21:16;59.30;;;24.50;;
84431;SDS011;74658;51.736;7.038;2024-01-30T06:26:17;66.40;;;28.10;;
84431;SDS011;74658;51.736;7.038;2024-01-30T06:31:17;62.10;;;27.30;;
84431;SDS011;74658;51.736;7.038;2024-01-30T06:36:18;63.40;;;28.30;;
84431;SDS011;74658;51.736;7.038;2024-01-30T06:41:18;58.20;;;26.10;;
84431;SDS011;74658;51.736;7.038;2024-01-30T06:46:19;59.40;;;26.70;;
84431;SDS011;74658;51.736;7.038;2024-01-30T06:51:20;52.10;;;24.70;;
84431;SDS011;74658;51.736;7.038;2024-01-30T06:56:21;43.40;;;20.30;;
84431;SDS011;74658;51.736;7.038;2024-01-30T07:01:21;47.90;;;21.40;;
84431;SDS011;74658;51.736;7.038;2024-01-30T07:06:22;46.70;;;20.60;;
84431;SDS011;74658;51.736;7.038;2024-01-30T07:11:22;61.90;;;27.40;;
84431;SDS011;74658;51.736;7.038;2024-01-30T07:16:23;64.50;;;28.40;;
84431;SDS011;74658;51.736;7.038;2024-01-30T07:21:24;55.20;;;26.10;;
84431;SDS011;74658;51.736;7.038;2024-01-30T07:26:24;55.80;;;24.10;;
84431;SDS011;74658;51.736;7.038;2024-01-30T07:31:25;47.30;;;22.70;;
84431;SDS011;74658;51.736;7.038;2024-01-30T07:36:25;47.60;;;21.90;;
84431;SDS011;74658;51.736;7.038;2024-01-30T07:41:26;50.50;;;25.50;;
84431;SDS011;74658;51.736;7.038;2024-01-30T07:46:26;50.40;;;23.90;;
84431;SDS011;74658;51.736;7.038;2024-01-30T07:51:27;47.90;;;23.30;;
84431;SDS011;74658;51.736;7.038;2024-01-30T07:56:28;45.80;;;22.00;;
84431;SDS011;74658;51.736;7.038;2024-01-30T08:01:28;44.00;;;21.20;;
84431;SDS011;74658;51.736;7.038;2024-01-30T08:06:29;42.50;;;19.60;;
84431;SDS011;74658;51.736;7.038;2024-01-30T08:11:30;41.20;;;19.60;;
84431;SDS011;74658;51.736;7.038;2024-01-30T08:16:30;42.30;;;20.80;;
84431;SDS011;74658;51.736;7.038;2024-01-30T08:21:31;44.70;;;20.40;;
84431;SDS011;74658;51.736;7.038;2024-01-30T08:26:32;40.60;;;19.50;;
84431;SDS011;74658;51.736;7.038;2024-01-30T08:31:32;37.80;;;19.20;;
84431;SDS011;74658;51.736;7.038;2024-01-30T08:36:33;35.60;;;18.30;;
84431;SDS011;74658;51.736;7.038;2024-01-30T08:41:33;40.00;;;20.60;;
84431;SDS011;74658;51.736;7.038;2024-01-30T08:46:37;38.60;;;20.70;;
84431;SDS011;74658;51.736;7.038;2024-01-30T08:51:35;38.20;;;16.40;;
84431;SDS011;74658;51.736;7.038;2024-01-30T08:56:36;27.90;;;15.00;;
84431;SDS011;74658;51.736;7.038;2024-01-30T09:01:36;27.10;;;13.80;;
84431;SDS011;74658;51.736;7.038;2024-01-30T09:06:37;25.80;;;12.90;;
84431;SDS011;74658;51.736;7.038;2024-01-30T09:11:38;24.00;;;11.30;;
84431;SDS011;74658;51.736;7.038;2024-01-30T09:16:41;26.20;;;11.70;;
84431;SDS011;74658;51.736;7.038;2024-01-30T09:21:40;19.90;;;10.00;;
84431;SDS011;74658;51.736;7.038;2024-01-30T09:26:41;22.00;;;10.30;;
84431;SDS011;74658;51.736;7.038;2024-01-30T09:31:42;19.80;;;10.60;;
84431;SDS011;74658;51.736;7.038;2024-01-30T09:36:42;18.40;;;9.40;;
84431;SDS011;74658;51.736;7.038;2024-01-30T09:41:44;19.90;;;9.70;;
84431;SDS011;74658;51.736;7.038;2024-01-30T09:46:43;19.00;;;9.40;;
84431;SDS011;74658;51.736;7.038;2024-01-30T09:51:44;20.10;;;9.70;;
84431;SDS011;74658;51.736;7.038;2024-01-30T09:56:44;18.50;;;9.30;;
84431;SDS011;74658;51.736;7.038;2024-01-30T10:01:45;18.40;;;9.30;;
84431;SDS011;74658;51.736;7.038;2024-01-30T10:06:46;17.20;;;9.20;;
84431;SDS011;74658;51.736;7.038;2024-01-30T10:11:46;15.50;;;8.30;;
84431;SDS011;74658;51.736;7.038;2024-01-30T10:16:47;14.00;;;7.90;;
84431;SDS011;74658;51.736;7.038;2024-01-30T10:21:47;15.40;;;7.70;;
84431;SDS011;74658;51.736;7.038;2024-01-30T10:26:48;14.10;;;7.60;;
84431;SDS011;74658;51.736;7.038;2024-01-30T10:31:57;18.10;;;7.60;;
84431;SDS011;74658;51.736;7.038;2024-01-30T10:36:50;12.20;;;6.50;;
84431;SDS011;74658;51.736;7.038;2024-01-30T10:41:50;14.90;;;7.20;;
84431;SDS011;74658;51.736;7.038;2024-01-30T10:46:51;14.00;;;7.30;;
84431;SDS011;74658;51.736;7.038;2024-01-30T10:51:51;17.40;;;8.30;;
84431;SDS011;74658;51.736;7.038;2024-01-30T10:56:52;14.40;;;7.30;;
84431;SDS011;74658;51.736;7.038;2024-01-30T11:01:52;15.20;;;7.30;;
84431;SDS011;74658;51.736;7.038;2024-01-30T11:06:53;16.50;;;7.80;;
84431;SDS011;74658;51.736;7.038;2024-01-30T11:11:55;17.20;;;7.90;;
84431;SDS011;74658;51.736;7.038;2024-01-30T11:16:56;14.70;;;7.60;;
84431;SDS011;74658;51.736;7.038;2024-01-30T11:21:55;19.90;;;9.20;;
84431;SDS011;74658;51.736;7.038;2024-01-30T11:26:56;14.20;;;7.60;;
84431;SDS011;74658;51.736;7.038;2024-01-30T11:31:57;18.70;;;7.50;;
84431;SDS011;74658;51.736;7.038;2024-01-30T11:36:57;18.00;;;8.00;;
84431;SDS011;74658;51.736;7.038;2024-01-30T11:41:58;15.40;;;7.60;;
84431;SDS011;74658;51.736;7.038;2024-01-30T11:46:58;15.40;;;7.90;;
84431;SDS011;74658;51.736;7.038;2024-01-30T11:51:59;15.30;;;7.70;;
84431;SDS011;74658;51.736;7.038;2024-01-30T11:56:59;16.50;;;7.30;;
84431;SDS011;74658;51.736;7.038;2024-01-30T12:02:00;14.20;;;8.00;;
84431;SDS011;74658;51.736;7.038;2024-01-30T12:07:00;18.90;;;8.30;;
84431;SDS011;74658;51.736;7.038;2024-01-30T12:12:01;14.60;;;7.70;;
84431;SDS011;74658;51.736;7.038;2024-01-30T12:17:02;14.20;;;6.90;;
84431;SDS011;74658;51.736;7.038;2024-01-30T12:22:02;13.50;;;7.60;;
84431;SDS011;74658;51.736;7.038;2024-01-30T12:27:03;15.00;;;7.70;;
84431;SDS011;74658;51.736;7.038;2024-01-30T12:32:04;16.10;;;7.80;;
84431;SDS011;74658;51.736;7.038;2024-01-30T12:37:04;16.00;;;7.70;;
84431;SDS011;74658;51.736;7.038;2024-01-30T12:42:05;18.20;;;8.10;;
84431;SDS011;74658;51.736;7.038;2024-01-30T12:47:06;15.00;;;7.40;;
84431;SDS011;74658;51.736;7.038;2024-01-30T12:52:06;17.90;;;7.30;;
84431;SDS011;74658;51.736;7.038;2024-01-30T12:57:07;17.20;;;7.90;;
84431;SDS011;74658;51.736;7.038;2024-01-30T13:02:07;16.40;;;7.40;;
84431;SDS011;74658;51.736;7.038;2024-01-30T13:07:08;18.40;;;7.10;;
84431;SDS011;74658;51.736;7.038;2024-01-30T13:12:09;15.70;;;7.30;;
84431;SDS011;74658;51.736;7.038;2024-01-30T13:17:09;14.50;;;6.90;;
84431;SDS011;74658;51.736;7.038;2024-01-30T13:22:10;18.40;;;7.90;;
84431;SDS011;74658;51.736;7.038;2024-01-30T13:27:10;17.90;;;7.40;;
84431;SDS011;74658;51.736;7.038;2024-01-30T13:32:11;14.70;;;8.20;;
84431;SDS011;74658;51.736;7.038;2024-01-30T13:37:12;16.20;;;7.40;;
84431;SDS011;74658;51.736;7.038;2024-01-30T13:42:12;15.70;;;7.50;;
84431;SDS011;74658;51.736;7.038;2024-01-30T13:47:13;18.20;;;8.10;;
84431;SDS011;74658;51.736;7.038;2024-01-30T13:52:13;16.60;;;8.10;;
84431;SDS011;74658;51.736;7.038;2024-01-30T13:57:14;13.70;;;7.50;;
84431;SDS011;74658;51.736;7.038;2024-01-30T14:02:15;18.30;;;8.90;;
84431;SDS011;74658;51.736;7.038;2024-01-30T14:07:15;21.00;;;9.60;;
84431;SDS011;74658;51.736;7.038;2024-01-30T14:12:16;19.90;;;9.10;;
84431;SDS011;74658;51.736;7.038;2024-01-30T14:17:17;20.50;;;8.30;;
84431;SDS011;74658;51.736;7.038;2024-01-30T14:22:17;17.80;;;8.20;;
84431;SDS011;74658;51.736;7.038;2024-01-30T14:27:18;17.50;;;8.10;;
84431;SDS011;74658;51.736;7.038;2024-01-30T14:32:19;18.30;;;8.50;;
84431;SDS011;74658;51.736;7.038;2024-01-30T14:37:19;17.10;;;8.00;;
84431;SDS011;74658;51.736;7.038;2024-01-30T14:42:20;17.80;;;9.30;;
84431;SDS011;74658;51.736;7.038;2024-01-30T14:47:20;18.50;;;8.60;;
84431;SDS011;74658;51.736;7.038;2024-01-30T14:52:21;15.80;;;8.10;;
84431;SDS011;74658;51.736;7.038;2024-01-30T14:57:22;15.10;;;7.70;;
84431;SDS011;74658;51.736;7.038;2024-01-30T15:02:22;15.70;;;7.70;;
84431;SDS011;74658;51.736;7.038;2024-01-30T15:07:23;15.20;;;6.90;;
84431;SDS011;74658;51.736;7.038;2024-01-30T15:12:24;10.40;;;5.10;;
84431;SDS011;74658;51.736;7.038;2024-01-30T15:17:24;8.00;;;3.90;;
84431;SDS011;74658;51.736;7.038;2024-01-30T15:22:25;8.00;;;2.90;;
84431;SDS011;74658;51.736;7.038;2024-01-30T15:27:25;9.40;;;2.80;;
84431;SDS011;74658;51.736;7.038;2024-01-30T15:32:26;5.20;;;2.00;;
84431;SDS011;74658;51.736;7.038;2024-01-30T15:37:27;4.90;;;1.70;;
84431;SDS011;74658;51.736;7.038;2024-01-30T15:42:28;7.10;;;1.90;;
84431;SDS011;74658;51.736;7.038;2024-01-30T15:47:28;6.60;;;2.30;;
84431;SDS011;74658;51.736;7.038;2024-01-30T15:52:29;6.10;;;2.20;;
84431;SDS011;74658;51.736;7.038;2024-01-30T15:57:29;5.70;;;1.50;;
84431;SDS011;74658;51.736;7.038;2024-01-30T16:02:30;4.50;;;1.40;;
84431;SDS011;74658;51.736;7.038;2024-01-30T16:07:30;6.30;;;2.40;;
84431;SDS011;74658;51.736;7.038;2024-01-30T16:12:31;5.10;;;1.50;;
84431;SDS011;74658;51.736;7.038;2024-01-30T16:17:32;6.80;;;1.70;;
84431;SDS011;74658;51.736;7.038;2024-01-30T16:22:32;4.90;;;1.40;;
84431;SDS011;74658;51.736;7.038;2024-01-30T16:27:33;4.70;;;1.30;;
84431;SDS011;74658;51.736;7.038;2024-01-30T16:32:34;4.50;;;1.70;;
84431;SDS011;74658;51.736;7.038;2024-01-30T16:37:34;5.90;;;1.50;;
84431;SDS011;74658;51.736;7.038;2024-01-30T16:42:35;6.40;;;1.80;;
84431;SDS011;74658;51.736;7.038;2024-01-30T16:47:35;5.40;;;1.60;;
84431;SDS011;74658;51.736;7.038;2024-01-30T16:52:36;6.50;;;1.80;;
84431;SDS011;74658;51.736;7.038;2024-01-30T16:57:37;6.10;;;2.00;;
84431;SDS011;74658;51.736;7.038;2024-01-30T17:02:37;5.40;;;2.00;;
84431;SDS011;74658;51.736;7.038;2024-01-30T17:07:38;6.10;;;2.50;;
84431;SDS011;74658;51.736;7.038;2024-01-30T17:12:38;8.50;;;3.10;;
84431;SDS011;74658;51.736;7.038;2024-01-30T17:17:39;9.90;;;4.40;;
84431;SDS011;74658;51.736;7.038;2024-01-30T17:22:40;12.20;;;5.50;;
84431;SDS011;74658;51.736;7.038;2024-01-30T17:27:40;13.10;;;6.20;;
84431;SDS011;74658;51.736;7.038;2024-01-30T17:32:41;14.60;;;6.40;;
84431;SDS011;74658;51.736;7.038;2024-01-30T17:37:41;13.80;;;5.80;;
84431;SDS011;74658;51.736;7.038;2024-01-30T17:42:42;12.50;;;5.80;;
84431;SDS011;74658;51.736;7.038;2024-01-30T17:47:43;11.80;;;5.20;;
84431;SDS011;74658;51.736;7.038;2024-01-30T17:52:43;11.50;;;5.10;;
84431;SDS011;74658;51.736;7.038;2024-01-30T17:57:44;11.70;;;4.60;;
84431;SDS011;74658;51.736;7.038;2024-01-30T18:02:44;12.40;;;5.80;;
84431;SDS011;74658;51.736;7.038;2024-01-30T18:07:45;15.80;;;6.50;;
84431;SDS011;74658;51.736;7.038;2024-01-30T18:12:46;15.30;;;6.60;;
84431;SDS011;74658;51.736;7.038;2024-01-30T18:17:46;17.10;;;7.60;;
84431;SDS011;74658;51.736;7.038;2024-01-30T18:22:47;15.30;;;7.00;;
84431;SDS011;74658;51.736;7.038;2024-01-30T18:27:47;21.40;;;8.90;;
84431;SDS011;74658;51.736;7.038;2024-01-30T18:32:48;19.60;;;8.30;;
84431;SDS011;74658;51.736;7.038;2024-01-30T18:37:49;19.50;;;9.30;;
84431;SDS011;74658;51.736;7.038;2024-01-30T18:42:49;19.80;;;8.90;;
84431;SDS011;74658;51.736;7.038;2024-01-30T18:47:50;20.70;;;8.80;;
84431;SDS011;74658;51.736;7.038;2024-01-30T18:52:51;23.30;;;9.20;;
84431;SDS011;74658;51.736;7.038;2024-01-30T18:57:51;22.90;;;9.80;;
84431;SDS011;74658;51.736;7.038;2024-01-30T19:02:52;22.60;;;10.00;;
84431;SDS011;74658;51.736;7.038;2024-01-30T19:07:52;26.00;;;10.30;;
84431;SDS011;74658;51.736;7.038;2024-01-30T19:12:53;20.70;;;8.50;;
84431;SDS011;74658;51.736;7.038;2024-01-30T19:17:54;27.70;;;10.90;;
84431;SDS011;74658;51.736;7.038;2024-01-30T19:22:54;31.70;;;10.80;;
84431;SDS011;74658;51.736;7.038;2024-01-30T19:27:55;25.50;;;10.40;;
84431;SDS011;74658;51.736;7.038;2024-01-30T19:32:55;31.20;;;10.90;;
84431;SDS011;74658;51.736;7.038;2024-01-30T19:37:56;25.60;;;10.60;;
84431;SDS011;74658;51.736;7.038;2024-01-30T19:42:57;22.40;;;9.30;;
84431;SDS011;74658;51.736;7.038;2024-01-30T19:47:57;21.80;;;8.70;;
84431;SDS011;74658;51.736;7.038;2024-01-30T19:52:58;24.90;;;9.90;;
84431;SDS011;74658;51.736;7.038;2024-01-30T19:57:59;25.00;;;9.40;;
84431;SDS011;74658;51.736;7.038;2024-01-30T20:02:59;26.00;;;10.20;;
84431;SDS011;74658;51.736;7.038;2024-01-30T20:08:00;24.50;;;9.40;;
84431;SDS011;74658;51.736;7.038;2024-01-30T20:13:00;25.70;;;10.20;;
84431;SDS011;74658;51.736;7.038;2024-01-30T20:18:01;24.70;;;9.60;;
84431;SDS011;74658;51.736;7.038;2024-01-30T20:23:02;25.20;;;10.60;;
84431;SDS011;74658;51.736;7.038;2024-01-30T20:28:02;25.40;;;11.00;;
84431;SDS011;74658;51.736;7.038;2024-01-30T20:33:03;27.80;;;11.80;;
84431;SDS011;74658;51.736;7.038;2024-01-30T20:38:03;26.50;;;10.80;;
84431;SDS011;74658;51.736;7.038;2024-01-30T20:43:04;30.00;;;11.40;;
84431;SDS011;74658;51.736;7.038;2024-01-30T20:48:05;26.40;;;9.90;;
84431;SDS011;74658;51.736;7.038;2024-01-30T20:53:05;29.40;;;11.20;;
84431;SDS011;74658;51.736;7.038;2024-01-30T20:58:06;29.40;;;10.70;;
84431;SDS011;74658;51.736;7.038;2024-01-30T21:03:06;28.50;;;11.00;;
84431;SDS011;74658;51.736;7.038;2024-01-30T21:08:07;31.10;;;11.50;;
84431;SDS011;74658;51.736;7.038;2024-01-30T21:13:08;31.10;;;11.40;;
84431;SDS011;74658;51.736;7.038;2024-01-30T21:18:08;33.80;;;15.20;;
84431;SDS011;74658;51.736;7.038;2024-01-30T21:23:09;35.80;;;14.90;;
84431;SDS011;74658;51.736;7.038;2024-01-30T21:28:09;30.70;;;12.30;;
84431;SDS011;74658;51.736;7.038;2024-01-30T21:33:10;37.40;;;12.20;;
84431;SDS011;74658;51.736;7.038;2024-01-30T21:38:11;32.50;;;12.20;;
84431;SDS011;74658;51.736;7.038;2024-01-30T21:43:11;35.20;;;11.60;;
84431;SDS011;74658;51.736;7.038;2024-01-30T21:48:12;31.40;;;10.80;;
84431;SDS011;74658;51.736;7.038;2024-01-30T21:53:12;30.70;;;9.90;;
84431;SDS011;74658;51.736;7.038;2024-01-30T21:58:13;24.20;;;7.90;;
84431;SDS011;74658;51.736;7.038;2024-01-30T22:03:14;19.30;;;6.10;;
84431;SDS011;74658;51.736;7.038;2024-01-30T22:08:14;18.30;;;6.00;;
84431;SDS011;74658;51.736;7.038;2024-01-30T22:13:15;18.80;;;6.60;;
84431;SDS011;74658;51.736;7.038;2024-01-30T22:18:15;19.90;;;6.10;;
84431;SDS011;74658;51.736;7.038;2024-01-30T22:23:16;20.70;;;7.00;;
84431;SDS011;74658;51.736;7.038;2024-01-30T22:28:17;21.30;;;6.90;;
84431;SDS011;74658;51.736;7.038;2024-01-30T22:33:17;18.50;;;6.10;;
84431;SDS011;74658;51.736;7.038;2024-01-30T22:38:18;22.10;;;7.20;;
84431;SDS011;74658;51.736;7.038;2024-01-30T22:43:18;21.40;;;6.90;;
84431;SDS011;74658;51.736;7.038;2024-01-30T22:48:19;23.50;;;7.00;;
84431;SDS011;74658;51.736;7.038;2024-01-30T22:53:20;25.10;;;7.90;;
84431;SDS011;74658;51.736;7.038;2024-01-30T22:58:20;27.50;;;8.00;;
84431;SDS011;74658;51.736;7.038;2024-01-30T23:03:22;29.90;;;8.10;;
84431;SDS011;74658;51.736;7.038;2024-01-30T23:08:21;24.60;;;8.10;;
84431;SDS011;74658;51.736;7.038;2024-01-30T23:13:22;29.60;;;8.90;;
84431;SDS011;74658;51.736;7.038;2024-01-30T23:18:23;32.60;;;9.30;;
84431;SDS011;74658;51.736;7.038;2024-01-30T23:23:23;28.30;;;7.90;;
84431;SDS011;74658;51.736;7.038;2024-01-30T23:28:24;32.30;;;9.00;;
84431;SDS011;74658;51.736;7.038;2024-01-30T23:33:24;29.30;;;8.60;;
84431;SDS011;74658;51.736;7.038;2024-01-30T23:38:25;26.70;;;7.90;;
84431;SDS011;74658;51.736;7.038;2024-01-30T23:43:26;32.70;;;8.70;;
84431;SDS011;74658;51.736;7.038;2024-01-30T23:48:26;31.70;;;8.80;;
84431;SDS011;74658;51.736;7.038;2024-01-30T23:53:27;29.10;;;8.60;;
84431;SDS011;74658;51.736;7.038;2024-01-30T23:58:28;29.30;;;8.30;;
